sensor_id;sensor_type;location;lat;lon;timestamp;P1;durP1;ratioP1;P2;durP2;ratioP2
6388;SDS011;3227;42.654;23.360;2023-11-19T00:00:05;4.97;;;3.00;;
6388;SDS011;3227;42.654;23.360;2023-11-19T00:02:36;6.53;;;2.93;;
6388;SDS011;3227;42.654;23.360;2023-11-19T00:05:04;7.87;;;2.83;;
6388;SDS011;3227;42.654;23.360;2023-11-19T00:07:34;5.03;;;3.30;;
6388;SDS011;3227;42.654;23.360;2023-11-19T00:10:03;4.70;;;2.70;;
6388;SDS011;3227;42.654;23.360;2023-11-19T00:12:35;4.97;;;2.93;;
6388;SDS011;3227;42.654;23.360;2023-11-19T00:15:03;4.83;;;3.00;;
6388;SDS011;3227;42.654;23.360;2023-11-19T00:17:32;5.17;;;2.93;;
6388;SDS011;3227;42.654;23.360;2023-11-19T00:19:58;4.93;;;3.07;;
6388;SDS011;3227;42.654;23.360;2023-11-19T00:22:25;4.10;;;2.80;;
6388;SDS011;3227;42.654;23.360;2023-11-19T00:24:53;4.47;;;2.70;;
6388;SDS011;3227;42.654;23.360;2023-11-19T00:27:21;4.43;;;2.90;;
6388;SDS011;3227;42.654;23.360;2023-11-19T00:29:47;6.23;;;3.30;;
6388;SDS011;3227;42.654;23.360;2023-11-19T00:32:14;4.40;;;2.83;;
6388;SDS011;3227;42.654;23.360;2023-11-19T00:34:43;4.40;;;2.97;;
6388;SDS011;3227;42.654;23.360;2023-11-19T00:37:10;4.77;;;3.10;;
6388;SDS011;3227;42.654;23.360;2023-11-19T00:39:37;4.30;;;2.80;;
6388;SDS011;3227;42.654;23.360;2023-11-19T00:42:03;4.57;;;2.80;;
6388;SDS011;3227;42.654;23.360;2023-11-19T00:44:32;10.93;;;3.50;;
6388;SDS011;3227;42.654;23.360;2023-11-19T00:46:59;4.83;;;2.80;;
6388;SDS011;3227;42.654;23.360;2023-11-19T00:49:26;4.53;;;2.87;;
6388;SDS011;3227;42.654;23.360;2023-11-19T00:51:53;5.30;;;2.80;;
6388;SDS011;3227;42.654;23.360;2023-11-19T00:54:20;4.63;;;3.03;;
6388;SDS011;3227;42.654;23.360;2023-11-19T00:56:50;5.07;;;3.00;;
6388;SDS011;3227;42.654;23.360;2023-11-19T00:59:17;4.10;;;2.90;;
6388;SDS011;3227;42.654;23.360;2023-11-19T01:01:45;4.93;;;3.13;;
6388;SDS011;3227;42.654;23.360;2023-11-19T01:04:13;4.73;;;2.93;;
6388;SDS011;3227;42.654;23.360;2023-11-19T01:06:40;5.13;;;3.10;;
6388;SDS011;3227;42.654;23.360;2023-11-19T01:09:07;4.00;;;2.70;;
6388;SDS011;3227;42.654;23.360;2023-11-19T01:11:34;4.80;;;3.10;;
6388;SDS011;3227;42.654;23.360;2023-11-19T01:14:01;4.90;;;3.10;;
6388;SDS011;3227;42.654;23.360;2023-11-19T01:16:28;7.43;;;2.80;;
6388;SDS011;3227;42.654;23.360;2023-11-19T01:18:56;4.53;;;2.90;;
6388;SDS011;3227;42.654;23.360;2023-11-19T01:21:23;4.90;;;2.70;;
6388;SDS011;3227;42.654;23.360;2023-11-19T01:23:50;4.50;;;2.93;;
6388;SDS011;3227;42.654;23.360;2023-11-19T01:26:17;4.47;;;2.77;;
6388;SDS011;3227;42.654;23.360;2023-11-19T01:28:43;4.60;;;2.93;;
6388;SDS011;3227;42.654;23.360;2023-11-19T01:31:14;4.77;;;2.63;;
6388;SDS011;3227;42.654;23.360;2023-11-19T01:33:41;4.63;;;2.70;;
6388;SDS011;3227;42.654;23.360;2023-11-19T01:36:12;5.80;;;3.10;;
6388;SDS011;3227;42.654;23.360;2023-11-19T01:38:39;4.40;;;2.70;;
6388;SDS011;3227;42.654;23.360;2023-11-19T01:41:06;4.87;;;3.10;;
6388;SDS011;3227;42.654;23.360;2023-11-19T01:43:34;3.63;;;2.50;;
6388;SDS011;3227;42.654;23.360;2023-11-19T01:46:01;4.47;;;2.77;;
6388;SDS011;3227;42.654;23.360;2023-11-19T01:48:29;3.97;;;2.70;;
6388;SDS011;3227;42.654;23.360;2023-11-19T01:50:57;4.40;;;2.70;;
6388;SDS011;3227;42.654;23.360;2023-11-19T01:53:26;5.43;;;2.90;;
6388;SDS011;3227;42.654;23.360;2023-11-19T01:55:54;4.30;;;2.70;;
6388;SDS011;3227;42.654;23.360;2023-11-19T01:58:21;4.30;;;2.63;;
6388;SDS011;3227;42.654;23.360;2023-11-19T02:00:49;4.93;;;3.00;;
6388;SDS011;3227;42.654;23.360;2023-11-19T02:03:16;5.03;;;2.73;;
6388;SDS011;3227;42.654;23.360;2023-11-19T02:05:44;3.43;;;2.40;;
6388;SDS011;3227;42.654;23.360;2023-11-19T02:08:12;7.40;;;3.00;;
6388;SDS011;3227;42.654;23.360;2023-11-19T02:10:40;4.90;;;2.60;;
6388;SDS011;3227;42.654;23.360;2023-11-19T02:13:08;3.93;;;2.27;;
6388;SDS011;3227;42.654;23.360;2023-11-19T02:15:35;5.83;;;2.77;;
6388;SDS011;3227;42.654;23.360;2023-11-19T02:20:53;3.20;;;2.30;;
6388;SDS011;3227;42.654;23.360;2023-11-19T02:23:21;4.60;;;2.93;;
6388;SDS011;3227;42.654;23.360;2023-11-19T02:25:54;4.10;;;2.60;;
6388;SDS011;3227;42.654;23.360;2023-11-19T02:28:27;4.53;;;2.70;;
6388;SDS011;3227;42.654;23.360;2023-11-19T02:30:54;3.80;;;2.33;;
6388;SDS011;3227;42.654;23.360;2023-11-19T02:33:22;3.67;;;2.50;;
6388;SDS011;3227;42.654;23.360;2023-11-19T02:35:49;4.83;;;2.73;;
6388;SDS011;3227;42.654;23.360;2023-11-19T02:38:16;4.83;;;2.73;;
6388;SDS011;3227;42.654;23.360;2023-11-19T02:40:42;3.47;;;2.50;;
6388;SDS011;3227;42.654;23.360;2023-11-19T02:43:09;4.30;;;2.70;;
6388;SDS011;3227;42.654;23.360;2023-11-19T02:45:37;4.03;;;2.50;;
6388;SDS011;3227;42.654;23.360;2023-11-19T02:48:04;4.27;;;2.50;;
6388;SDS011;3227;42.654;23.360;2023-11-19T02:50:32;4.13;;;2.63;;
6388;SDS011;3227;42.654;23.360;2023-11-19T02:52:59;4.23;;;2.70;;
6388;SDS011;3227;42.654;23.360;2023-11-19T02:55:26;5.23;;;3.00;;
6388;SDS011;3227;42.654;23.360;2023-11-19T02:57:55;5.03;;;2.80;;
6388;SDS011;3227;42.654;23.360;2023-11-19T03:00:24;4.30;;;2.87;;
6388;SDS011;3227;42.654;23.360;2023-11-19T03:02:58;3.60;;;2.30;;
6388;SDS011;3227;42.654;23.360;2023-11-19T03:05:35;4.63;;;2.60;;
6388;SDS011;3227;42.654;23.360;2023-11-19T03:08:02;4.90;;;2.90;;
6388;SDS011;3227;42.654;23.360;2023-11-19T03:10:28;4.53;;;2.67;;
6388;SDS011;3227;42.654;23.360;2023-11-19T03:12:55;3.53;;;2.43;;
6388;SDS011;3227;42.654;23.360;2023-11-19T03:15:22;4.47;;;2.50;;
6388;SDS011;3227;42.654;23.360;2023-11-19T03:17:49;4.90;;;3.00;;
6388;SDS011;3227;42.654;23.360;2023-11-19T03:20:17;4.23;;;2.53;;
6388;SDS011;3227;42.654;23.360;2023-11-19T03:22:44;3.73;;;2.70;;
6388;SDS011;3227;42.654;23.360;2023-11-19T03:25:11;4.23;;;2.70;;
6388;SDS011;3227;42.654;23.360;2023-11-19T03:27:38;3.77;;;2.60;;
6388;SDS011;3227;42.654;23.360;2023-11-19T03:30:07;4.60;;;2.80;;
6388;SDS011;3227;42.654;23.360;2023-11-19T03:32:36;4.10;;;2.70;;
6388;SDS011;3227;42.654;23.360;2023-11-19T03:35:04;4.00;;;2.50;;
6388;SDS011;3227;42.654;23.360;2023-11-19T03:37:33;3.97;;;2.70;;
6388;SDS011;3227;42.654;23.360;2023-11-19T03:40:00;3.17;;;2.37;;
6388;SDS011;3227;42.654;23.360;2023-11-19T03:42:27;4.83;;;2.97;;
6388;SDS011;3227;42.654;23.360;2023-11-19T03:44:55;4.07;;;2.47;;
6388;SDS011;3227;42.654;23.360;2023-11-19T03:47:22;5.97;;;3.00;;
6388;SDS011;3227;42.654;23.360;2023-11-19T03:49:49;4.07;;;2.53;;
6388;SDS011;3227;42.654;23.360;2023-11-19T03:52:16;4.90;;;2.77;;
6388;SDS011;3227;42.654;23.360;2023-11-19T03:54:44;4.00;;;2.70;;
6388;SDS011;3227;42.654;23.360;2023-11-19T03:57:11;4.60;;;2.90;;
6388;SDS011;3227;42.654;23.360;2023-11-19T03:59:38;4.00;;;2.47;;
6388;SDS011;3227;42.654;23.360;2023-11-19T04:02:05;4.90;;;2.90;;
6388;SDS011;3227;42.654;23.360;2023-11-19T04:04:32;4.77;;;2.73;;
6388;SDS011;3227;42.654;23.360;2023-11-19T04:07:00;4.27;;;2.60;;
6388;SDS011;3227;42.654;23.360;2023-11-19T04:09:28;4.97;;;2.93;;
6388;SDS011;3227;42.654;23.360;2023-11-19T04:11:56;4.77;;;2.80;;
6388;SDS011;3227;42.654;23.360;2023-11-19T04:14:23;3.83;;;2.50;;
6388;SDS011;3227;42.654;23.360;2023-11-19T04:16:50;4.43;;;2.80;;
6388;SDS011;3227;42.654;23.360;2023-11-19T04:19:17;5.10;;;2.93;;
6388;SDS011;3227;42.654;23.360;2023-11-19T04:21:44;4.50;;;2.90;;
6388;SDS011;3227;42.654;23.360;2023-11-19T04:24:11;5.13;;;3.00;;
6388;SDS011;3227;42.654;23.360;2023-11-19T04:26:42;5.53;;;2.63;;
6388;SDS011;3227;42.654;23.360;2023-11-19T04:29:12;5.33;;;3.17;;
6388;SDS011;3227;42.654;23.360;2023-11-19T04:31:42;6.50;;;2.87;;
6388;SDS011;3227;42.654;23.360;2023-11-19T04:34:09;4.33;;;2.50;;
6388;SDS011;3227;42.654;23.360;2023-11-19T04:36:36;3.73;;;2.77;;
6388;SDS011;3227;42.654;23.360;2023-11-19T04:39:04;3.87;;;2.57;;
6388;SDS011;3227;42.654;23.360;2023-11-19T04:41:34;5.23;;;2.80;;
6388;SDS011;3227;42.654;23.360;2023-11-19T04:44:01;4.53;;;2.70;;
6388;SDS011;3227;42.654;23.360;2023-11-19T04:46:29;5.43;;;2.80;;
6388;SDS011;3227;42.654;23.360;2023-11-19T04:48:56;4.80;;;3.03;;
6388;SDS011;3227;42.654;23.360;2023-11-19T04:51:23;5.10;;;2.77;;
6388;SDS011;3227;42.654;23.360;2023-11-19T04:53:49;5.33;;;2.97;;
6388;SDS011;3227;42.654;23.360;2023-11-19T04:56:16;5.03;;;3.17;;
6388;SDS011;3227;42.654;23.360;2023-11-19T04:58:45;4.70;;;2.90;;
6388;SDS011;3227;42.654;23.360;2023-11-19T05:01:13;5.10;;;2.87;;
6388;SDS011;3227;42.654;23.360;2023-11-19T05:03:43;5.10;;;2.83;;
6388;SDS011;3227;42.654;23.360;2023-11-19T05:06:10;4.70;;;2.97;;
6388;SDS011;3227;42.654;23.360;2023-11-19T05:08:37;4.50;;;2.80;;
6388;SDS011;3227;42.654;23.360;2023-11-19T05:11:04;9.57;;;2.63;;
6388;SDS011;3227;42.654;23.360;2023-11-19T05:13:31;5.13;;;3.00;;
6388;SDS011;3227;42.654;23.360;2023-11-19T05:15:58;4.37;;;2.70;;
6388;SDS011;3227;42.654;23.360;2023-11-19T05:18:25;4.70;;;2.97;;
6388;SDS011;3227;42.654;23.360;2023-11-19T05:20:53;3.93;;;2.70;;
6388;SDS011;3227;42.654;23.360;2023-11-19T05:23:20;4.87;;;2.83;;
6388;SDS011;3227;42.654;23.360;2023-11-19T05:25:46;4.57;;;2.83;;
6388;SDS011;3227;42.654;23.360;2023-11-19T05:28:13;3.97;;;2.57;;
6388;SDS011;3227;42.654;23.360;2023-11-19T05:30:40;4.37;;;2.70;;
6388;SDS011;3227;42.654;23.360;2023-11-19T05:33:07;5.83;;;2.80;;
6388;SDS011;3227;42.654;23.360;2023-11-19T05:35:34;3.50;;;2.37;;
6388;SDS011;3227;42.654;23.360;2023-11-19T05:38:03;4.57;;;2.60;;
6388;SDS011;3227;42.654;23.360;2023-11-19T05:40:31;5.83;;;2.60;;
6388;SDS011;3227;42.654;23.360;2023-11-19T05:42:58;4.07;;;2.70;;
6388;SDS011;3227;42.654;23.360;2023-11-19T05:45:24;4.23;;;2.50;;
6388;SDS011;3227;42.654;23.360;2023-11-19T05:47:51;2.93;;;2.33;;
6388;SDS011;3227;42.654;23.360;2023-11-19T05:50:18;5.03;;;2.80;;
6388;SDS011;3227;42.654;23.360;2023-11-19T05:52:45;4.73;;;2.90;;
6388;SDS011;3227;42.654;23.360;2023-11-19T05:55:14;4.83;;;2.70;;
6388;SDS011;3227;42.654;23.360;2023-11-19T05:57:40;4.27;;;2.80;;
6388;SDS011;3227;42.654;23.360;2023-11-19T06:00:08;4.43;;;2.90;;
6388;SDS011;3227;42.654;23.360;2023-11-19T06:02:38;4.70;;;2.83;;
6388;SDS011;3227;42.654;23.360;2023-11-19T06:05:05;7.23;;;3.20;;
6388;SDS011;3227;42.654;23.360;2023-11-19T06:07:33;5.40;;;3.23;;
6388;SDS011;3227;42.654;23.360;2023-11-19T06:10:00;4.57;;;2.90;;
6388;SDS011;3227;42.654;23.360;2023-11-19T06:12:29;4.67;;;2.80;;
6388;SDS011;3227;42.654;23.360;2023-11-19T06:14:57;5.93;;;3.00;;
6388;SDS011;3227;42.654;23.360;2023-11-19T06:17:23;4.93;;;3.10;;
6388;SDS011;3227;42.654;23.360;2023-11-19T06:19:50;4.93;;;2.90;;
6388;SDS011;3227;42.654;23.360;2023-11-19T06:22:17;5.07;;;2.97;;
6388;SDS011;3227;42.654;23.360;2023-11-19T06:24:44;3.90;;;2.50;;
6388;SDS011;3227;42.654;23.360;2023-11-19T06:27:10;5.30;;;2.93;;
6388;SDS011;3227;42.654;23.360;2023-11-19T06:29:39;6.50;;;2.87;;
6388;SDS011;3227;42.654;23.360;2023-11-19T06:32:06;5.47;;;2.97;;
6388;SDS011;3227;42.654;23.360;2023-11-19T06:34:33;5.20;;;3.20;;
6388;SDS011;3227;42.654;23.360;2023-11-19T06:37:00;5.37;;;3.00;;
6388;SDS011;3227;42.654;23.360;2023-11-19T06:39:28;5.70;;;3.07;;
6388;SDS011;3227;42.654;23.360;2023-11-19T06:41:55;4.60;;;2.80;;
6388;SDS011;3227;42.654;23.360;2023-11-19T06:44:21;5.23;;;2.93;;
6388;SDS011;3227;42.654;23.360;2023-11-19T06:46:51;4.40;;;2.50;;
6388;SDS011;3227;42.654;23.360;2023-11-19T06:49:18;4.70;;;3.00;;
6388;SDS011;3227;42.654;23.360;2023-11-19T06:51:45;4.30;;;2.67;;
6388;SDS011;3227;42.654;23.360;2023-11-19T06:54:12;5.20;;;3.03;;
6388;SDS011;3227;42.654;23.360;2023-11-19T06:56:39;6.57;;;3.27;;
6388;SDS011;3227;42.654;23.360;2023-11-19T06:59:06;5.77;;;3.40;;
6388;SDS011;3227;42.654;23.360;2023-11-19T07:01:34;5.10;;;3.20;;
6388;SDS011;3227;42.654;23.360;2023-11-19T07:04:03;5.23;;;3.37;;
6388;SDS011;3227;42.654;23.360;2023-11-19T07:06:34;4.80;;;3.00;;
6388;SDS011;3227;42.654;23.360;2023-11-19T07:09:01;5.90;;;3.40;;
6388;SDS011;3227;42.654;23.360;2023-11-19T07:11:34;5.40;;;2.90;;
6388;SDS011;3227;42.654;23.360;2023-11-19T07:14:02;5.43;;;3.20;;
6388;SDS011;3227;42.654;23.360;2023-11-19T07:16:29;5.23;;;3.23;;
6388;SDS011;3227;42.654;23.360;2023-11-19T07:18:56;5.60;;;3.10;;
6388;SDS011;3227;42.654;23.360;2023-11-19T07:21:25;4.40;;;2.87;;
6388;SDS011;3227;42.654;23.360;2023-11-19T07:23:53;5.47;;;3.10;;
6388;SDS011;3227;42.654;23.360;2023-11-19T07:26:20;6.03;;;3.33;;
6388;SDS011;3227;42.654;23.360;2023-11-19T07:28:47;5.80;;;3.30;;
6388;SDS011;3227;42.654;23.360;2023-11-19T07:31:13;6.80;;;3.60;;
6388;SDS011;3227;42.654;23.360;2023-11-19T07:33:40;5.83;;;3.50;;
6388;SDS011;3227;42.654;23.360;2023-11-19T07:36:08;5.77;;;3.43;;
6388;SDS011;3227;42.654;23.360;2023-11-19T07:38:36;5.07;;;3.07;;
6388;SDS011;3227;42.654;23.360;2023-11-19T07:41:04;5.70;;;3.20;;
6388;SDS011;3227;42.654;23.360;2023-11-19T07:43:32;7.03;;;3.50;;
6388;SDS011;3227;42.654;23.360;2023-11-19T07:45:59;5.57;;;3.20;;
6388;SDS011;3227;42.654;23.360;2023-11-19T07:48:26;4.77;;;2.87;;
6388;SDS011;3227;42.654;23.360;2023-11-19T07:50:53;6.03;;;3.13;;
6388;SDS011;3227;42.654;23.360;2023-11-19T07:53:20;6.27;;;3.20;;
6388;SDS011;3227;42.654;23.360;2023-11-19T07:55:48;5.63;;;3.27;;
6388;SDS011;3227;42.654;23.360;2023-11-19T07:58:15;5.77;;;3.33;;
6388;SDS011;3227;42.654;23.360;2023-11-19T08:00:42;4.87;;;3.17;;
6388;SDS011;3227;42.654;23.360;2023-11-19T08:03:10;5.90;;;3.63;;
6388;SDS011;3227;42.654;23.360;2023-11-19T08:05:39;5.90;;;3.37;;
6388;SDS011;3227;42.654;23.360;2023-11-19T08:08:06;6.93;;;3.13;;
6388;SDS011;3227;42.654;23.360;2023-11-19T08:10:32;5.17;;;3.03;;
6388;SDS011;3227;42.654;23.360;2023-11-19T08:13:00;5.50;;;3.40;;
6388;SDS011;3227;42.654;23.360;2023-11-19T08:15:27;5.27;;;3.27;;
6388;SDS011;3227;42.654;23.360;2023-11-19T08:17:54;6.23;;;3.50;;
6388;SDS011;3227;42.654;23.360;2023-11-19T08:20:21;5.37;;;3.13;;
6388;SDS011;3227;42.654;23.360;2023-11-19T08:22:48;6.80;;;3.43;;
6388;SDS011;3227;42.654;23.360;2023-11-19T08:25:15;5.70;;;3.57;;
6388;SDS011;3227;42.654;23.360;2023-11-19T08:27:42;6.17;;;3.30;;
6388;SDS011;3227;42.654;23.360;2023-11-19T08:30:10;5.80;;;3.50;;
6388;SDS011;3227;42.654;23.360;2023-11-19T08:32:38;5.33;;;3.23;;
6388;SDS011;3227;42.654;23.360;2023-11-19T08:35:05;5.63;;;3.30;;
6388;SDS011;3227;42.654;23.360;2023-11-19T08:37:32;6.20;;;3.53;;
6388;SDS011;3227;42.654;23.360;2023-11-19T08:39:59;6.43;;;3.40;;
6388;SDS011;3227;42.654;23.360;2023-11-19T08:42:26;6.07;;;3.40;;
6388;SDS011;3227;42.654;23.360;2023-11-19T08:44:52;6.00;;;3.30;;
6388;SDS011;3227;42.654;23.360;2023-11-19T08:47:21;8.37;;;3.50;;
6388;SDS011;3227;42.654;23.360;2023-11-19T08:49:50;6.73;;;3.90;;
6388;SDS011;3227;42.654;23.360;2023-11-19T08:52:17;7.13;;;3.77;;
6388;SDS011;3227;42.654;23.360;2023-11-19T08:54:44;8.17;;;4.03;;
6388;SDS011;3227;42.654;23.360;2023-11-19T08:57:11;6.70;;;3.83;;
6388;SDS011;3227;42.654;23.360;2023-11-19T08:59:37;5.57;;;2.97;;
6388;SDS011;3227;42.654;23.360;2023-11-19T09:02:05;5.47;;;3.20;;
6388;SDS011;3227;42.654;23.360;2023-11-19T09:04:33;4.80;;;3.00;;
6388;SDS011;3227;42.654;23.360;2023-11-19T09:07:01;5.70;;;3.27;;
6388;SDS011;3227;42.654;23.360;2023-11-19T09:09:28;5.83;;;3.30;;
6388;SDS011;3227;42.654;23.360;2023-11-19T09:11:55;6.60;;;3.80;;
6388;SDS011;3227;42.654;23.360;2023-11-19T09:14:21;6.33;;;2.90;;
6388;SDS011;3227;42.654;23.360;2023-11-19T09:16:50;5.93;;;3.30;;
6388;SDS011;3227;42.654;23.360;2023-11-19T09:19:17;7.33;;;4.17;;
6388;SDS011;3227;42.654;23.360;2023-11-19T09:21:46;5.37;;;3.20;;
6388;SDS011;3227;42.654;23.360;2023-11-19T09:24:13;4.90;;;3.10;;
6388;SDS011;3227;42.654;23.360;2023-11-19T09:26:40;5.32;;;3.10;;
6388;SDS011;3227;42.654;23.360;2023-11-19T09:29:06;6.38;;;3.30;;
6388;SDS011;3227;42.654;23.360;2023-11-19T09:31:33;5.90;;;3.40;;
6388;SDS011;3227;42.654;23.360;2023-11-19T09:34:00;5.65;;;3.50;;
6388;SDS011;3227;42.654;23.360;2023-11-19T09:36:27;5.70;;;3.40;;
6388;SDS011;3227;42.654;23.360;2023-11-19T09:38:55;6.13;;;3.50;;
6388;SDS011;3227;42.654;23.360;2023-11-19T09:41:22;5.80;;;3.45;;
6388;SDS011;3227;42.654;23.360;2023-11-19T09:43:50;5.60;;;3.20;;
6388;SDS011;3227;42.654;23.360;2023-11-19T09:46:17;5.38;;;2.97;;
6388;SDS011;3227;42.654;23.360;2023-11-19T09:48:46;4.87;;;3.20;;
6388;SDS011;3227;42.654;23.360;2023-11-19T09:51:13;4.90;;;2.93;;
6388;SDS011;3227;42.654;23.360;2023-11-19T09:53:40;4.80;;;3.03;;
6388;SDS011;3227;42.654;23.360;2023-11-19T09:56:09;5.13;;;3.00;;
6388;SDS011;3227;42.654;23.360;2023-11-19T09:58:38;5.50;;;3.13;;
6388;SDS011;3227;42.654;23.360;2023-11-19T10:01:06;5.25;;;3.20;;
6388;SDS011;3227;42.654;23.360;2023-11-19T10:03:39;6.13;;;3.30;;
6388;SDS011;3227;42.654;23.360;2023-11-19T10:06:09;5.23;;;3.13;;
6388;SDS011;3227;42.654;23.360;2023-11-19T10:08:37;5.23;;;2.97;;
6388;SDS011;3227;42.654;23.360;2023-11-19T10:11:04;4.80;;;3.00;;
6388;SDS011;3227;42.654;23.360;2023-11-19T10:13:33;5.50;;;3.10;;
6388;SDS011;3227;42.654;23.360;2023-11-19T10:16:04;5.13;;;2.93;;
6388;SDS011;3227;42.654;23.360;2023-11-19T10:18:33;5.80;;;3.10;;
6388;SDS011;3227;42.654;23.360;2023-11-19T10:21:03;4.57;;;2.73;;
6388;SDS011;3227;42.654;23.360;2023-11-19T10:23:30;4.73;;;2.90;;
6388;SDS011;3227;42.654;23.360;2023-11-19T10:26:02;5.20;;;3.20;;
6388;SDS011;3227;42.654;23.360;2023-11-19T10:28:37;4.23;;;2.93;;
6388;SDS011;3227;42.654;23.360;2023-11-19T10:31:05;3.63;;;2.50;;
6388;SDS011;3227;42.654;23.360;2023-11-19T10:33:32;5.13;;;3.07;;
6388;SDS011;3227;42.654;23.360;2023-11-19T10:35:59;5.73;;;3.20;;
6388;SDS011;3227;42.654;23.360;2023-11-19T10:38:26;4.47;;;2.67;;
6388;SDS011;3227;42.654;23.360;2023-11-19T10:40:53;6.43;;;2.90;;
6388;SDS011;3227;42.654;23.360;2023-11-19T10:43:20;4.83;;;2.90;;
6388;SDS011;3227;42.654;23.360;2023-11-19T10:45:50;4.97;;;2.90;;
6388;SDS011;3227;42.654;23.360;2023-11-19T10:48:17;6.00;;;3.07;;
6388;SDS011;3227;42.654;23.360;2023-11-19T10:50:45;5.10;;;2.70;;
6388;SDS011;3227;42.654;23.360;2023-11-19T10:53:15;4.67;;;2.70;;
6388;SDS011;3227;42.654;23.360;2023-11-19T10:55:45;4.40;;;2.73;;
6388;SDS011;3227;42.654;23.360;2023-11-19T10:58:16;4.60;;;2.63;;
6388;SDS011;3227;42.654;23.360;2023-11-19T11:00:43;5.23;;;3.07;;
6388;SDS011;3227;42.654;23.360;2023-11-19T11:03:15;4.77;;;2.60;;
6388;SDS011;3227;42.654;23.360;2023-11-19T11:05:43;5.03;;;3.17;;
6388;SDS011;3227;42.654;23.360;2023-11-19T11:08:13;5.13;;;3.10;;
6388;SDS011;3227;42.654;23.360;2023-11-19T11:10:43;4.63;;;2.83;;
6388;SDS011;3227;42.654;23.360;2023-11-19T11:13:11;4.43;;;2.70;;
6388;SDS011;3227;42.654;23.360;2023-11-19T11:15:40;5.93;;;2.90;;
6388;SDS011;3227;42.654;23.360;2023-11-19T11:18:08;5.40;;;2.80;;
6388;SDS011;3227;42.654;23.360;2023-11-19T11:20:40;5.03;;;2.83;;
6388;SDS011;3227;42.654;23.360;2023-11-19T11:26:35;4.30;;;2.67;;
6388;SDS011;3227;42.654;23.360;2023-11-19T11:29:20;4.27;;;2.57;;
6388;SDS011;3227;42.654;23.360;2023-11-19T11:31:54;5.00;;;2.80;;
6388;SDS011;3227;42.654;23.360;2023-11-19T11:34:41;4.70;;;2.70;;
6388;SDS011;3227;42.654;23.360;2023-11-19T11:37:25;7.23;;;3.10;;
6388;SDS011;3227;42.654;23.360;2023-11-19T11:39:58;4.47;;;2.73;;
6388;SDS011;3227;42.654;23.360;2023-11-19T11:42:30;5.03;;;2.90;;
6388;SDS011;3227;42.654;23.360;2023-11-19T11:44:58;5.53;;;3.30;;
6388;SDS011;3227;42.654;23.360;2023-11-19T11:47:32;4.63;;;3.10;;
6388;SDS011;3227;42.654;23.360;2023-11-19T11:50:34;5.97;;;3.25;;
6388;SDS011;3227;42.654;23.360;2023-11-19T11:53:16;4.77;;;2.87;;
6388;SDS011;3227;42.654;23.360;2023-11-19T11:55:54;3.70;;;2.50;;
6388;SDS011;3227;42.654;23.360;2023-11-19T11:58:29;5.82;;;3.20;;
6388;SDS011;3227;42.654;23.360;2023-11-19T12:01:02;4.87;;;2.93;;
6388;SDS011;3227;42.654;23.360;2023-11-19T12:03:30;5.03;;;2.90;;
6388;SDS011;3227;42.654;23.360;2023-11-19T12:05:58;5.13;;;2.83;;
6388;SDS011;3227;42.654;23.360;2023-11-19T12:08:27;4.90;;;3.00;;
6388;SDS011;3227;42.654;23.360;2023-11-19T12:10:55;4.87;;;2.87;;
6388;SDS011;3227;42.654;23.360;2023-11-19T12:13:24;4.60;;;2.70;;
6388;SDS011;3227;42.654;23.360;2023-11-19T12:16:08;5.30;;;2.93;;
6388;SDS011;3227;42.654;23.360;2023-11-19T12:18:35;5.37;;;2.77;;
6388;SDS011;3227;42.654;23.360;2023-11-19T12:21:02;6.22;;;3.47;;
6388;SDS011;3227;42.654;23.360;2023-11-19T12:23:32;5.37;;;3.23;;
6388;SDS011;3227;42.654;23.360;2023-11-19T12:26:00;8.60;;;4.10;;
6388;SDS011;3227;42.654;23.360;2023-11-19T12:28:27;6.60;;;3.63;;
6388;SDS011;3227;42.654;23.360;2023-11-19T12:30:54;6.30;;;3.70;;
6388;SDS011;3227;42.654;23.360;2023-11-19T12:33:35;7.87;;;4.00;;
6388;SDS011;3227;42.654;23.360;2023-11-19T12:36:03;5.37;;;3.17;;
6388;SDS011;3227;42.654;23.360;2023-11-19T12:38:32;5.73;;;3.50;;
6388;SDS011;3227;42.654;23.360;2023-11-19T12:41:02;5.80;;;3.17;;
6388;SDS011;3227;42.654;23.360;2023-11-19T12:43:30;6.60;;;3.20;;
6388;SDS011;3227;42.654;23.360;2023-11-19T12:45:56;5.60;;;3.10;;
6388;SDS011;3227;42.654;23.360;2023-11-19T12:48:23;6.23;;;3.37;;
6388;SDS011;3227;42.654;23.360;2023-11-19T12:50:50;5.93;;;3.30;;
6388;SDS011;3227;42.654;23.360;2023-11-19T12:53:18;7.60;;;3.70;;
6388;SDS011;3227;42.654;23.360;2023-11-19T12:55:46;5.57;;;3.37;;
6388;SDS011;3227;42.654;23.360;2023-11-19T12:58:27;5.13;;;3.13;;
6388;SDS011;3227;42.654;23.360;2023-11-19T13:00:58;6.73;;;3.30;;
6388;SDS011;3227;42.654;23.360;2023-11-19T13:03:29;5.38;;;3.00;;
6388;SDS011;3227;42.654;23.360;2023-11-19T13:06:01;5.00;;;3.10;;
6388;SDS011;3227;42.654;23.360;2023-11-19T13:08:29;8.00;;;3.80;;
6388;SDS011;3227;42.654;23.360;2023-11-19T13:11:04;5.87;;;3.03;;
6388;SDS011;3227;42.654;23.360;2023-11-19T13:13:32;6.27;;;3.43;;
6388;SDS011;3227;42.654;23.360;2023-11-19T13:16:03;7.40;;;3.77;;
6388;SDS011;3227;42.654;23.360;2023-11-19T13:18:31;6.13;;;3.03;;
6388;SDS011;3227;42.654;23.360;2023-11-19T13:20:58;9.57;;;4.20;;
6388;SDS011;3227;42.654;23.360;2023-11-19T13:23:25;9.60;;;3.43;;
6388;SDS011;3227;42.654;23.360;2023-11-19T13:25:52;7.37;;;3.47;;
6388;SDS011;3227;42.654;23.360;2023-11-19T13:28:20;7.05;;;4.05;;
6388;SDS011;3227;42.654;23.360;2023-11-19T13:30:47;6.03;;;3.30;;
6388;SDS011;3227;42.654;23.360;2023-11-19T13:33:14;6.18;;;3.70;;
6388;SDS011;3227;42.654;23.360;2023-11-19T13:35:41;6.00;;;3.27;;
6388;SDS011;3227;42.654;23.360;2023-11-19T13:38:08;5.33;;;3.13;;
6388;SDS011;3227;42.654;23.360;2023-11-19T13:40:35;5.50;;;3.15;;
6388;SDS011;3227;42.654;23.360;2023-11-19T13:43:02;6.10;;;3.50;;
6388;SDS011;3227;42.654;23.360;2023-11-19T13:45:30;6.43;;;3.60;;
6388;SDS011;3227;42.654;23.360;2023-11-19T13:47:57;7.00;;;3.78;;
6388;SDS011;3227;42.654;23.360;2023-11-19T13:50:24;7.03;;;3.80;;
6388;SDS011;3227;42.654;23.360;2023-11-19T13:52:51;7.53;;;3.53;;
6388;SDS011;3227;42.654;23.360;2023-11-19T13:55:18;7.40;;;3.60;;
6388;SDS011;3227;42.654;23.360;2023-11-19T13:57:44;5.93;;;3.57;;
6388;SDS011;3227;42.654;23.360;2023-11-19T14:00:12;7.47;;;3.87;;
6388;SDS011;3227;42.654;23.360;2023-11-19T14:02:42;6.37;;;3.53;;
6388;SDS011;3227;42.654;23.360;2023-11-19T14:05:09;5.87;;;3.33;;
6388;SDS011;3227;42.654;23.360;2023-11-19T14:07:37;7.30;;;3.63;;
6388;SDS011;3227;42.654;23.360;2023-11-19T14:10:03;6.28;;;3.58;;
6388;SDS011;3227;42.654;23.360;2023-11-19T14:12:31;5.43;;;3.10;;
6388;SDS011;3227;42.654;23.360;2023-11-19T14:14:58;6.97;;;3.78;;
6388;SDS011;3227;42.654;23.360;2023-11-19T14:17:26;7.13;;;3.33;;
6388;SDS011;3227;42.654;23.360;2023-11-19T14:19:54;4.73;;;3.03;;
6388;SDS011;3227;42.654;23.360;2023-11-19T14:22:21;7.20;;;3.50;;
6388;SDS011;3227;42.654;23.360;2023-11-19T14:24:48;5.85;;;3.33;;
6388;SDS011;3227;42.654;23.360;2023-11-19T14:27:15;5.47;;;3.10;;
6388;SDS011;3227;42.654;23.360;2023-11-19T14:29:42;7.57;;;3.43;;
6388;SDS011;3227;42.654;23.360;2023-11-19T14:32:10;5.38;;;3.00;;
6388;SDS011;3227;42.654;23.360;2023-11-19T14:34:37;7.15;;;3.90;;
6388;SDS011;3227;42.654;23.360;2023-11-19T14:37:05;7.57;;;4.00;;
6388;SDS011;3227;42.654;23.360;2023-11-19T14:39:32;7.53;;;4.00;;
6388;SDS011;3227;42.654;23.360;2023-11-19T14:41:59;7.43;;;3.80;;
6388;SDS011;3227;42.654;23.360;2023-11-19T14:44:29;6.70;;;3.80;;
6388;SDS011;3227;42.654;23.360;2023-11-19T14:46:56;8.30;;;4.50;;
6388;SDS011;3227;42.654;23.360;2023-11-19T14:49:23;5.60;;;3.50;;
6388;SDS011;3227;42.654;23.360;2023-11-19T14:51:51;7.60;;;3.47;;
6388;SDS011;3227;42.654;23.360;2023-11-19T14:54:19;7.75;;;4.15;;
6388;SDS011;3227;42.654;23.360;2023-11-19T14:56:46;7.43;;;4.20;;
6388;SDS011;3227;42.654;23.360;2023-11-19T14:59:13;7.03;;;3.63;;
6388;SDS011;3227;42.654;23.360;2023-11-19T15:01:39;6.43;;;3.53;;
6388;SDS011;3227;42.654;23.360;2023-11-19T15:04:06;7.50;;;4.18;;
6388;SDS011;3227;42.654;23.360;2023-11-19T15:06:33;6.57;;;4.00;;
6388;SDS011;3227;42.654;23.360;2023-11-19T15:09:01;7.70;;;4.10;;
6388;SDS011;3227;42.654;23.360;2023-11-19T15:11:29;8.63;;;3.80;;